»·PEaware :: N525AT KLAX-KSAN

N525AT :: KLAX-KSAN

FLIGHT INFORMATION

Flight Status: Arrived
Operator: Privately registered:
United States
More flights under this callsign
Pilot: Colin P. (16825)
Aircraft: MOONEY M-20 201 202 205 220 ATS MSE
(M20P)
More flights by this aircraft type
Origin: KLAX Los Angeles Intl
United States
Destination: KSAN San Diego Intl-Lindbergh
United States
More flights between these airports :: More routes between these airports
Route: DCT
File this flight plan on PilotEdge
Remarks: CAT 11 Rating test
Altitude:
(Current/Filed)
7,500ft
Speed:
(Current/Filed)
140kts
Departed: 13-Jun-18 09:44 AM
Arrived: 13-Jun-18 10:31 AM
Distance/Time
Traveled:
95nm/0:47
Distance/Time
To Go:
Arrived

Flight Plot

Page will automatically refresh every two minutes.

Flight plan parsing failed; only flown route is shown


Map Options




Map Legend


Flown Route
Filed Route
Departure Airport
Arrival Airport
Navaid (VOR, NDB)
Fix

Horizontal Profiles

Position Reports

Time Latitude Longitude Heading Altitude Ground
Speed
13-Jun-18 08:49 33.933338 -118.399851 78 105ft 0kts
13-Jun-18 08:50 33.933338 -118.399851 78 105ft 0kts
13-Jun-18 08:51 33.933338 -118.399851 78 105ft 0kts
13-Jun-18 08:52 33.933338 -118.399851 78 105ft 0kts
13-Jun-18 08:53 33.933338 -118.399851 78 105ft 0kts
13-Jun-18 08:54 33.933338 -118.399851 78 105ft 0kts
13-Jun-18 08:55 33.933338 -118.399851 78 105ft 0kts
13-Jun-18 08:56 33.933338 -118.399851 78 105ft 0kts
13-Jun-18 08:57 33.933338 -118.399851 78 105ft 0kts
13-Jun-18 08:58 33.933338 -118.399851 78 105ft 0kts
13-Jun-18 08:59 33.933338 -118.399851 78 105ft 0kts
13-Jun-18 09:00 33.933338 -118.399851 78 105ft 0kts
13-Jun-18 09:01 33.933338 -118.399851 78 105ft 0kts
13-Jun-18 09:02 33.933338 -118.399851 78 105ft 0kts
13-Jun-18 09:03 33.933338 -118.399851 78 105ft 0kts
13-Jun-18 09:04 33.933338 -118.399851 78 105ft 0kts
13-Jun-18 09:05 33.933338 -118.399851 78 105ft 0kts
13-Jun-18 09:06 33.933338 -118.399851 78 105ft 0kts
13-Jun-18 09:07 33.933338 -118.399851 78 105ft 0kts
13-Jun-18 09:08 33.933338 -118.399851 78 105ft 0kts
13-Jun-18 09:09 33.933338 -118.399851 78 105ft 0kts
13-Jun-18 09:10 33.933338 -118.399851 78 105ft 0kts
13-Jun-18 09:11 33.933338 -118.399851 78 105ft 0kts
13-Jun-18 09:12 33.933338 -118.399851 78 105ft 0kts
13-Jun-18 09:13 33.933338 -118.399851 78 105ft 0kts
13-Jun-18 09:14 33.933338 -118.399851 78 105ft 0kts
13-Jun-18 09:15 33.933338 -118.399851 78 105ft 0kts
13-Jun-18 09:16 33.933338 -118.399851 78 105ft 0kts
13-Jun-18 09:17 33.933338 -118.399851 78 105ft 0kts
13-Jun-18 09:18 33.933338 -118.399851 78 105ft 0kts
13-Jun-18 09:19 33.933338 -118.399851 78 105ft 0kts
13-Jun-18 09:20 33.933338 -118.399851 78 105ft 0kts
13-Jun-18 09:21 33.933338 -118.399851 78 105ft 0kts
13-Jun-18 09:22 33.933338 -118.399851 78 105ft 0kts
13-Jun-18 09:23 33.933338 -118.399851 78 105ft 0kts
13-Jun-18 09:24 33.933402 -118.399781 13 105ft 0kts
13-Jun-18 09:25 33.933402 -118.399781 13 105ft 0kts
13-Jun-18 09:26 33.933402 -118.399781 13 105ft 0kts
13-Jun-18 09:27 33.933402 -118.399781 13 105ft 0kts
13-Jun-18 09:28 33.933402 -118.399781 13 105ft 0kts
13-Jun-18 09:29 33.933402 -118.399781 13 105ft 0kts
13-Jun-18 09:30 33.933402 -118.399781 13 105ft 0kts
13-Jun-18 09:31 33.933402 -118.399781 13 105ft 0kts
13-Jun-18 09:32 33.933402 -118.399781 13 105ft 0kts
13-Jun-18 09:33 33.933402 -118.399781 13 105ft 0kts
13-Jun-18 09:34 33.933402 -118.399781 13 105ft 0kts
13-Jun-18 09:35 33.933402 -118.399781 13 105ft 0kts
13-Jun-18 09:36 33.933460 -118.399765 7 105ft 2kts
13-Jun-18 09:37 33.934451 -118.399234 90 105ft 11kts
13-Jun-18 09:38 33.934875 -118.394696 92 105ft 14kts
13-Jun-18 09:39 33.935502 -118.388991 87 105ft 19kts
13-Jun-18 09:40 33.936104 -118.383488 81 105ft 19kts
13-Jun-18 09:41 33.936260 -118.382420 262 105ft 0kts
13-Jun-18 09:42 33.936260 -118.382420 262 105ft 0kts
13-Jun-18 09:43 33.936457 -118.382746 349 105ft 0kts
13-Jun-18 09:44 33.936786 -118.388775 264 105ft 86kts
13-Jun-18 09:45 33.933308 -118.426283 260 947ft 140kts
13-Jun-18 09:46 33.928829 -118.471182 267 2225ft 137kts
13-Jun-18 09:47 33.930122 -118.520061 271 2812ft 158kts
13-Jun-18 09:48 33.906672 -118.551551 148 2780ft 166kts
13-Jun-18 09:49 33.895496 -118.495764 101 2594ft 175kts
13-Jun-18 09:50 33.876772 -118.446079 140 2535ft 164kts
13-Jun-18 09:51 33.841949 -118.413289 148 2476ft 155kts
13-Jun-18 09:52 33.808375 -118.386458 144 2567ft 148kts
13-Jun-18 09:53 33.779305 -118.348893 133 3058ft 163kts
13-Jun-18 09:54 33.752872 -118.312226 127 4388ft 129kts
13-Jun-18 09:55 33.736801 -118.276853 120 5509ft 118kts
13-Jun-18 09:56 33.725759 -118.239477 103 6308ft 127kts
13-Jun-18 09:57 33.701086 -118.210120 155 6852ft 137kts
13-Jun-18 09:58 33.663450 -118.199112 178 7375ft 147kts
13-Jun-18 09:59 33.620630 -118.189371 167 7403ft 172kts
13-Jun-18 10:00 33.578126 -118.163898 157 7510ft 175kts
13-Jun-18 10:01 33.535276 -118.135342 144 7485ft 177kts
13-Jun-18 10:02 33.512452 -118.085674 100 7582ft 167kts
13-Jun-18 10:03 33.490279 -118.037416 129 7436ft 168kts
13-Jun-18 10:04 33.470184 -117.987524 117 7470ft 166kts
13-Jun-18 10:05 33.450906 -117.937399 117 7470ft 164kts
13-Jun-18 10:06 33.432173 -117.888521 117 7470ft 160kts
13-Jun-18 10:07 33.410360 -117.842733 131 7471ft 157kts
13-Jun-18 10:08 33.382153 -117.802888 135 7470ft 157kts
13-Jun-18 10:09 33.350698 -117.766987 141 7470ft 156kts
13-Jun-18 10:10 33.317637 -117.733070 141 7470ft 156kts
13-Jun-18 10:11 33.284559 -117.699148 141 7470ft 158kts
13-Jun-18 10:12 33.250906 -117.664677 141 7470ft 160kts
13-Jun-18 10:13 33.217179 -117.630146 141 7470ft 160kts
13-Jun-18 10:14 33.182024 -117.595476 146 7189ft 177kts
13-Jun-18 10:15 33.142034 -117.560822 135 6755ft 176kts
13-Jun-18 10:16 33.107807 -117.525794 149 5530ft 155kts
13-Jun-18 10:17 33.079447 -117.487282 122 4492ft 161kts
13-Jun-18 10:18 33.055161 -117.444162 128 4510ft 156kts
13-Jun-18 10:19 33.028880 -117.403357 131 4494ft 152kts
13-Jun-18 10:20 32.997897 -117.372257 146 4454ft 148kts
13-Jun-18 10:21 32.962863 -117.348876 159 4505ft 139kts
13-Jun-18 10:22 32.929672 -117.323341 144 4480ft 139kts
13-Jun-18 10:23 32.898663 -117.291411 143 3532ft 154kts
13-Jun-18 10:24 32.866322 -117.262018 148 2492ft 147kts
13-Jun-18 10:25 32.832420 -117.238577 155 2300ft 139kts
13-Jun-18 10:26 32.798168 -117.219633 161 1938ft 136kts
13-Jun-18 10:27 32.770992 -117.208669 149 1448ft 95kts
13-Jun-18 10:28 32.752837 -117.183670 120 823ft 98kts
13-Jun-18 10:29 32.739296 -117.162755 180 752ft 82kts
13-Jun-18 10:30 32.731236 -117.180113 282 43ft 70kts
13-Jun-18 10:31 32.733895 -117.191249 295 17ft 16kts
13-Jun-18 10:32 32.733140 -117.191671 204 17ft 3kts
13-Jun-18 10:33 32.731918 -117.193310 7 17ft 0kts
13-Jun-18 10:34 32.731918 -117.193310 7 17ft 0kts

Navigation Log

Ident Type
Flight plan parsing failed, navigation log unavailable